createdAt,value
2019-03-12T00:00:22.776Z,12.13
2019-03-12T00:02:51.601Z,10.00
2019-03-12T00:05:24.526Z,8.20
2019-03-12T00:07:52.967Z,9.03
2019-03-12T00:10:21.656Z,18.77
2019-03-12T00:12:50.414Z,20.20
2019-03-12T00:15:19.087Z,17.40
2019-03-12T00:17:47.763Z,22.83
2019-03-12T00:20:16.382Z,21.07
2019-03-12T00:22:45.102Z,30.20
2019-03-12T00:25:13.717Z,24.90
2019-03-12T00:27:42.353Z,25.77
2019-03-12T00:30:11.708Z,28.93
2019-03-12T00:32:40.300Z,23.60
2019-03-12T00:35:09.750Z,27.20
2019-03-12T00:37:38.325Z,17.20
2019-03-12T00:40:08.557Z,13.30
2019-03-12T00:42:37.247Z,15.10
2019-03-12T00:45:08.800Z,15.60
2019-03-12T00:47:37.422Z,20.43
2019-03-12T00:50:08.621Z,13.03
2019-03-12T00:52:37.220Z,14.33
2019-03-12T00:55:07.491Z,12.33
2019-03-12T00:57:36.121Z,12.53
2019-03-12T01:00:07.632Z,9.20
2019-03-12T01:02:36.362Z,8.13
2019-03-12T01:05:05.999Z,10.47
2019-03-12T01:07:34.591Z,10.23
2019-03-12T01:10:03.624Z,9.43
2019-03-12T01:12:32.430Z,10.30
2019-03-12T01:15:01.416Z,13.83
2019-03-12T01:17:30.142Z,14.70
2019-03-12T01:19:58.691Z,13.97
2019-03-12T01:22:27.309Z,15.97
2019-03-12T01:24:55.974Z,14.37
2019-03-12T01:27:24.636Z,10.47
2019-03-12T01:29:53.306Z,18.00
2019-03-12T01:32:24.709Z,14.90
2019-03-12T01:34:53.339Z,12.63
2019-03-12T01:37:21.959Z,14.77
2019-03-12T01:39:52.992Z,12.30
2019-03-12T01:42:21.670Z,12.73
2019-03-12T01:44:50.273Z,12.43
2019-03-12T01:47:18.960Z,9.93
2019-03-12T01:49:47.553Z,9.53
2019-03-12T01:52:16.158Z,12.00
2019-03-12T01:54:44.793Z,13.67
2019-03-12T01:57:13.421Z,14.83
2019-03-12T01:59:42.106Z,18.77
2019-03-12T02:02:10.809Z,16.13
2019-03-12T02:04:39.781Z,13.47
2019-03-12T02:07:08.450Z,14.47
2019-03-12T02:09:37.069Z,10.83
2019-03-12T02:12:05.755Z,14.50
2019-03-12T02:14:34.558Z,11.63
2019-03-12T02:17:03.229Z,13.27
2019-03-12T02:19:31.835Z,14.23
2019-03-12T02:22:00.559Z,11.93
2019-03-12T02:24:29.238Z,7.40
2019-03-12T02:26:57.932Z,8.80
2019-03-12T02:29:26.640Z,11.00
2019-03-12T02:31:55.253Z,9.73
2019-03-12T02:34:23.887Z,8.87
2019-03-12T02:36:52.420Z,10.80
2019-03-12T02:39:21.886Z,10.17
2019-03-12T02:41:50.449Z,10.37
2019-03-12T02:44:19.462Z,11.37
2019-03-12T02:46:48.128Z,10.13
2019-03-12T02:49:16.673Z,12.40
2019-03-12T02:51:45.434Z,10.57
2019-03-12T02:54:14.042Z,13.10
2019-03-12T02:56:42.714Z,10.97
2019-03-12T02:59:11.310Z,11.37
2019-03-12T03:01:39.856Z,10.80
2019-03-12T03:04:08.538Z,11.20
2019-03-12T03:06:38.869Z,9.30
2019-03-12T03:09:08.683Z,9.27
2019-03-12T03:11:37.388Z,9.23
2019-03-12T03:14:06.119Z,10.70
2019-03-12T03:16:34.807Z,9.87
2019-03-12T03:19:03.327Z,9.17
2019-03-12T03:21:32.060Z,9.80
2019-03-12T03:24:00.656Z,11.47
2019-03-12T03:26:29.255Z,7.60
2019-03-12T03:29:00.714Z,6.10
2019-03-12T03:31:29.482Z,5.93
2019-03-12T03:33:58.144Z,5.57
2019-03-12T03:36:26.689Z,3.77
2019-03-12T03:38:57.265Z,5.33
2019-03-12T03:41:27.122Z,6.73
2019-03-12T03:43:55.913Z,4.67
2019-03-12T03:46:24.673Z,5.33
2019-03-12T03:48:53.296Z,7.83
2019-03-12T03:51:21.933Z,10.57
2019-03-12T03:53:50.686Z,8.53
2019-03-12T03:56:19.345Z,5.03
2019-03-12T03:58:47.993Z,7.83
2019-03-12T04:01:16.617Z,5.70
2019-03-12T04:03:45.370Z,9.63
2019-03-12T04:06:13.975Z,4.73
2019-03-12T04:08:42.699Z,8.53
2019-03-12T04:11:11.295Z,7.53
2019-03-12T04:13:39.886Z,7.97
2019-03-12T04:16:08.742Z,7.50
2019-03-12T04:18:37.358Z,9.87
2019-03-12T04:21:05.999Z,10.80
2019-03-12T04:23:34.586Z,11.03
2019-03-12T04:26:03.273Z,9.40
2019-03-12T04:28:31.947Z,10.77
2019-03-12T04:31:00.510Z,7.80
2019-03-12T04:33:54.721Z,11.27
2019-03-12T04:36:23.415Z,14.20
2019-03-12T04:38:52.017Z,12.03
2019-03-12T04:41:20.588Z,10.23
2019-03-12T04:43:49.265Z,11.13
2019-03-12T04:46:17.834Z,10.60
2019-03-12T04:48:46.440Z,12.07
2019-03-12T04:51:15.342Z,13.20
2019-03-12T04:53:44.002Z,10.40
2019-03-12T04:56:12.762Z,10.80
2019-03-12T04:58:41.343Z,11.27
2019-03-12T05:01:10.183Z,10.73
2019-03-12T05:03:38.815Z,10.13
2019-03-12T05:06:07.363Z,10.97
2019-03-12T05:08:36.207Z,10.03
2019-03-12T05:11:04.972Z,11.57
2019-03-12T05:13:33.430Z,13.77
2019-03-12T05:16:01.913Z,11.23
2019-03-12T05:18:32.641Z,11.00
2019-03-12T05:21:01.383Z,10.87
2019-03-12T05:23:30.101Z,12.03
2019-03-12T05:25:58.708Z,10.70
2019-03-12T05:28:27.375Z,10.70
2019-03-12T05:30:55.992Z,8.77
2019-03-12T05:33:24.655Z,13.63
2019-03-12T05:35:53.458Z,13.47
2019-03-12T05:38:22.003Z,15.83
2019-03-12T05:40:50.741Z,13.77
2019-03-12T05:43:19.408Z,12.90
2019-03-12T05:45:48.006Z,15.30
2019-03-12T05:48:16.779Z,14.80
2019-03-12T05:50:45.429Z,13.97
2019-03-12T05:53:17.141Z,13.77
2019-03-12T05:55:45.749Z,13.60
2019-03-12T05:58:14.492Z,14.07
2019-03-12T06:00:46.138Z,11.73
2019-03-12T06:03:16.434Z,15.33
2019-03-12T06:05:44.990Z,7.97
2019-03-12T06:08:13.693Z,18.67
2019-03-12T06:10:44.205Z,17.00
2019-03-12T06:13:12.533Z,18.67
2019-03-12T06:15:41.135Z,13.97
2019-03-12T06:18:16.683Z,14.73
2019-03-12T06:20:45.351Z,15.87
2019-03-12T06:23:15.415Z,14.07
2019-03-12T06:25:44.350Z,14.67
2019-03-12T06:28:12.966Z,18.37
2019-03-12T06:30:43.307Z,15.27
2019-03-12T06:33:24.242Z,15.40
2019-03-12T06:35:57.240Z,15.23
2019-03-12T06:38:42.773Z,14.57
2019-03-12T06:41:17.915Z,15.07
2019-03-12T06:43:53.761Z,13.43
2019-03-12T06:46:27.098Z,18.77
2019-03-12T06:49:02.991Z,14.20
2019-03-12T06:51:49.311Z,14.13
2019-03-12T06:54:34.073Z,12.03
2019-03-12T06:57:04.265Z,15.53
2019-03-12T06:59:34.573Z,12.80
2019-03-12T07:02:04.944Z,16.57
2019-03-12T07:04:50.433Z,12.60
2019-03-12T07:07:20.890Z,14.50
2019-03-12T07:10:05.568Z,16.83
2019-03-12T07:12:41.807Z,17.60
2019-03-12T07:15:13.010Z,15.53
2019-03-12T07:17:45.688Z,17.73
2019-03-12T07:20:33.802Z,14.77
2019-03-12T07:23:16.037Z,20.23
2019-03-12T07:25:50.896Z,21.40
2019-03-12T07:28:23.616Z,19.90
2019-03-12T07:30:53.835Z,17.87
2019-03-12T07:33:24.050Z,16.73
2019-03-12T07:35:57.034Z,19.57
2019-03-12T07:38:36.359Z,25.53
2019-03-12T07:41:06.613Z,15.57
2019-03-12T07:43:39.552Z,19.57
2019-03-12T07:46:15.614Z,15.50
2019-03-12T07:48:45.854Z,16.67
2019-03-12T07:51:22.280Z,14.90
2019-03-12T07:54:10.835Z,14.23
2019-03-12T07:56:46.600Z,12.13
2019-03-12T07:59:28.796Z,12.57
2019-03-12T08:01:59.049Z,16.52
2019-03-12T08:04:45.329Z,11.80
2019-03-12T08:07:21.518Z,12.13
2019-03-12T08:09:51.897Z,12.07
2019-03-12T08:12:37.330Z,13.50
2019-03-12T08:15:23.512Z,10.07
2019-03-12T08:18:10.071Z,11.77
2019-03-12T08:20:46.199Z,11.80
2019-03-12T08:23:16.457Z,10.47
2019-03-12T08:25:46.798Z,11.13
2019-03-12T08:28:23.222Z,9.20
2019-03-12T08:31:10.050Z,10.30
2019-03-12T08:33:58.268Z,12.50
2019-03-12T08:36:37.556Z,9.47
2019-03-12T08:39:09.106Z,9.10
2019-03-12T08:41:45.334Z,10.10
2019-03-12T08:44:31.679Z,12.20
2019-03-12T08:47:05.195Z,10.25
2019-03-12T08:49:38.414Z,10.43
2019-03-12T08:52:11.613Z,7.57
2019-03-12T08:54:53.718Z,10.97
2019-03-12T08:57:28.458Z,10.30
2019-03-12T09:00:04.357Z,11.67
2019-03-12T09:02:37.528Z,11.77
2019-03-12T09:05:08.817Z,11.77
2019-03-12T09:07:47.873Z,16.70
2019-03-12T09:10:34.217Z,10.83
2019-03-12T09:13:11.028Z,12.77
2019-03-12T09:15:44.047Z,14.13
2019-03-12T09:18:14.358Z,13.13
2019-03-12T09:21:00.346Z,10.80
2019-03-12T09:23:30.544Z,34.03
2019-03-12T09:26:00.861Z,13.40
2019-03-12T09:28:39.956Z,12.17
2019-03-12T09:31:16.316Z,14.17
2019-03-12T09:33:55.042Z,15.20
2019-03-12T09:36:25.318Z,16.90
2019-03-12T09:39:13.621Z,13.50
2019-03-12T09:41:43.982Z,11.87
2019-03-12T09:44:17.202Z,13.87
2019-03-12T09:46:50.136Z,10.47
2019-03-12T09:49:27.471Z,13.67
2019-03-12T09:51:55.088Z,11.73
2019-03-12T09:54:25.355Z,11.33
2019-03-12T09:57:16.554Z,10.97
2019-03-12T09:59:52.565Z,8.80
2019-03-12T10:02:37.891Z,9.80
2019-03-12T10:05:09.443Z,7.97
2019-03-12T10:07:55.682Z,12.27
2019-03-12T10:10:25.983Z,10.80
2019-03-12T10:13:12.040Z,9.83
2019-03-12T10:15:45.370Z,10.10
2019-03-12T10:18:27.556Z,8.40
2019-03-12T10:21:00.148Z,14.27
2019-03-12T10:23:47.101Z,10.38
2019-03-12T10:26:29.073Z,9.83
2019-03-12T10:29:05.314Z,9.90
2019-03-12T10:31:38.387Z,8.90
2019-03-12T10:34:29.668Z,8.33
2019-03-12T10:36:56.879Z,7.93
2019-03-12T10:39:55.496Z,9.60
2019-03-12T10:42:26.142Z,8.43
2019-03-12T10:45:02.275Z,8.33
2019-03-12T10:47:32.442Z,9.63
2019-03-12T10:50:01.904Z,6.03
2019-03-12T10:52:32.723Z,7.83
2019-03-12T10:55:12.101Z,10.03
2019-03-12T10:57:31.886Z,8.77
2019-03-12T11:00:00.624Z,10.87
2019-03-12T11:02:29.362Z,10.07
2019-03-12T11:04:59.365Z,10.57
2019-03-12T11:07:28.065Z,6.37
2019-03-12T11:09:56.833Z,9.83
2019-03-12T11:12:25.597Z,8.87
2019-03-12T11:14:54.287Z,11.43
2019-03-12T11:17:23.099Z,9.63
2019-03-12T11:19:51.705Z,9.67
2019-03-12T11:22:22.351Z,9.48
2019-03-12T11:24:50.643Z,7.77
2019-03-12T11:27:19.327Z,18.97
2019-03-12T11:29:48.057Z,9.73
2019-03-12T11:32:16.664Z,12.53
2019-03-12T11:34:47.041Z,11.93
2019-03-12T11:37:15.725Z,24.37
2019-03-12T11:39:44.355Z,12.67
2019-03-12T11:42:13.044Z,25.67
2019-03-12T11:44:41.910Z,21.23
2019-03-12T11:47:10.625Z,10.97
2019-03-12T11:49:41.196Z,10.60
2019-03-12T11:52:09.633Z,9.27
2019-03-12T11:54:38.465Z,11.40
2019-03-12T11:57:07.581Z,11.80
2019-03-12T11:59:36.215Z,11.27
2019-03-12T12:02:05.799Z,11.65
2019-03-12T12:04:34.404Z,12.73
2019-03-12T12:07:02.928Z,13.33
2019-03-12T12:09:31.587Z,12.57
2019-03-12T12:12:00.237Z,13.47
2019-03-12T12:14:28.967Z,11.00
2019-03-12T12:16:57.659Z,21.97
2019-03-12T12:19:26.266Z,11.18
2019-03-12T12:21:54.970Z,21.13
2019-03-12T12:24:26.549Z,11.77
2019-03-12T12:26:54.099Z,10.17
2019-03-12T12:29:22.973Z,16.27
2019-03-12T12:31:51.584Z,16.63
2019-03-12T12:34:20.257Z,14.80
2019-03-12T12:36:48.945Z,14.85
2019-03-12T12:39:17.572Z,14.93
2019-03-12T12:41:46.196Z,17.43
2019-03-12T12:44:17.035Z,11.75
2019-03-12T12:46:45.449Z,12.03
2019-03-12T12:49:14.078Z,12.80
2019-03-12T12:51:43.037Z,12.07
2019-03-12T12:54:11.733Z,13.67
2019-03-12T12:56:40.433Z,12.93
2019-03-12T12:59:09.167Z,17.53
2019-03-12T13:01:37.910Z,17.67
2019-03-12T13:04:06.521Z,11.38
2019-03-12T13:06:35.232Z,16.93
2019-03-12T13:09:05.123Z,13.47
2019-03-12T13:11:33.766Z,11.20
2019-03-12T13:14:02.420Z,17.15
2019-03-12T13:16:31.113Z,12.30
2019-03-12T13:18:59.761Z,13.37
2019-03-12T13:21:28.456Z,13.50
2019-03-12T13:23:57.211Z,15.90
2019-03-12T13:26:25.886Z,24.57
2019-03-12T13:28:54.573Z,19.47
2019-03-12T13:31:23.497Z,17.75
2019-03-12T13:33:52.410Z,15.78
2019-03-12T13:36:21.043Z,14.58
2019-03-12T13:38:49.634Z,18.83
2019-03-12T13:41:18.401Z,15.45
2019-03-12T13:43:47.354Z,14.25
2019-03-12T13:46:16.111Z,13.88
2019-03-12T13:48:44.999Z,12.80
2019-03-12T13:51:13.587Z,17.20
2019-03-12T13:53:42.304Z,19.07
2019-03-12T13:56:13.197Z,14.65
2019-03-12T13:58:41.813Z,14.47
2019-03-12T14:01:10.593Z,17.17
2019-03-12T14:03:39.280Z,14.47
2019-03-12T14:06:07.907Z,12.47
2019-03-12T14:08:39.635Z,13.68
2019-03-12T14:11:08.672Z,13.58
2019-03-12T14:13:37.343Z,14.83
2019-03-12T14:16:06.322Z,16.13
2019-03-12T14:18:34.966Z,16.47
2019-03-12T14:21:06.863Z,16.40
2019-03-12T14:23:47.230Z,14.57
2019-03-12T14:26:16.160Z,15.77
2019-03-12T14:28:44.756Z,11.43
2019-03-12T14:31:13.368Z,11.33
2019-03-12T14:33:42.184Z,12.45
2019-03-12T14:36:10.801Z,13.20
2019-03-12T14:38:39.432Z,13.43
2019-03-12T14:41:08.030Z,13.50
2019-03-12T14:43:36.789Z,12.37
2019-03-12T14:46:05.904Z,12.03
2019-03-12T14:48:42.543Z,10.90
2019-03-12T14:51:14.075Z,13.17
2019-03-12T14:53:44.331Z,15.77
2019-03-12T14:56:12.964Z,13.23
2019-03-12T14:58:41.620Z,12.80
2019-03-12T15:01:10.317Z,22.55
2019-03-12T15:03:39.013Z,13.63
2019-03-12T15:06:07.639Z,14.60
2019-03-12T15:08:36.270Z,14.17
2019-03-12T15:11:05.523Z,14.70
2019-03-12T15:13:34.199Z,18.10
2019-03-12T15:16:02.829Z,11.67
2019-03-12T15:18:31.641Z,11.60
2019-03-12T15:21:00.284Z,14.60
2019-03-12T15:23:29.127Z,13.37
2019-03-12T15:25:57.737Z,18.77
2019-03-12T15:28:26.310Z,15.28
2019-03-12T15:30:54.944Z,14.25
2019-03-12T15:33:23.680Z,22.13
2019-03-12T15:35:52.348Z,16.07
2019-03-12T15:38:20.947Z,14.67
2019-03-12T15:40:49.564Z,15.93
2019-03-12T15:43:18.414Z,11.90
2019-03-12T15:45:47.115Z,17.13
2019-03-12T15:48:15.771Z,13.60
2019-03-12T15:50:44.415Z,19.70
2019-03-12T15:53:13.157Z,16.03
2019-03-12T15:55:41.767Z,21.00
2019-03-12T15:58:10.429Z,15.20
2019-03-12T16:00:39.041Z,13.87
2019-03-12T16:03:08.537Z,15.07
2019-03-12T16:05:37.146Z,13.73
2019-03-12T16:08:05.815Z,18.83
2019-03-12T16:10:34.495Z,20.83
2019-03-12T16:13:03.142Z,15.97
2019-03-12T16:15:31.709Z,12.47
2019-03-12T16:18:00.400Z,15.27
2019-03-12T16:20:28.930Z,11.23
2019-03-12T16:22:57.484Z,14.20
2019-03-12T16:25:26.121Z,13.33
2019-03-12T16:27:54.849Z,14.77
2019-03-12T16:30:23.725Z,12.93
2019-03-12T16:32:52.377Z,12.37
2019-03-12T16:35:20.974Z,15.70
2019-03-12T16:37:49.502Z,16.43
2019-03-12T16:40:20.135Z,31.90
2019-03-12T16:42:48.832Z,24.40
2019-03-12T16:45:19.030Z,21.77
2019-03-12T16:47:47.712Z,14.47
2019-03-12T16:50:17.361Z,19.17
2019-03-12T16:52:46.574Z,25.30
2019-03-12T16:55:16.905Z,53.10
2019-03-12T16:57:45.727Z,43.17
2019-03-12T17:00:23.001Z,69.07
2019-03-12T17:02:52.090Z,102.97
2019-03-12T17:05:20.723Z,99.17
2019-03-12T17:07:49.277Z,98.30
2019-03-12T17:10:19.375Z,90.80
2019-03-12T17:12:48.114Z,87.13
2019-03-12T17:15:27.288Z,125.03
2019-03-12T17:17:55.943Z,154.60
2019-03-12T17:20:24.626Z,171.03
2019-03-12T17:22:53.202Z,116.33
2019-03-12T17:25:21.842Z,117.47
2019-03-12T17:27:51.820Z,117.97
2019-03-12T17:30:22.035Z,77.80
2019-03-12T17:32:50.702Z,83.00
2019-03-12T17:35:30.983Z,85.83
2019-03-12T17:37:59.523Z,76.40
2019-03-12T17:40:28.065Z,87.07
2019-03-12T17:42:56.721Z,72.13
2019-03-12T17:45:25.350Z,65.70
2019-03-12T17:47:53.962Z,46.60
2019-03-12T17:50:22.782Z,52.13
2019-03-12T17:52:51.436Z,53.57
2019-03-12T17:55:20.269Z,44.43
2019-03-12T17:57:51.315Z,55.60
2019-03-12T18:00:28.101Z,46.10
2019-03-12T18:02:55.845Z,55.93
2019-03-12T18:05:24.526Z,34.73
2019-03-12T18:07:53.397Z,48.50
2019-03-12T18:10:22.346Z,59.73
2019-03-12T18:12:51.125Z,49.97
2019-03-12T18:15:20.843Z,67.87
2019-03-12T18:17:49.977Z,59.83
2019-03-12T18:20:20.968Z,60.63
2019-03-12T18:22:49.576Z,58.33
2019-03-12T18:25:38.630Z,59.50
2019-03-12T18:28:09.714Z,48.53
2019-03-12T18:30:38.365Z,49.87
2019-03-12T18:33:06.978Z,50.63
2019-03-12T18:35:35.583Z,48.97
2019-03-12T18:38:04.323Z,51.33
2019-03-12T18:40:32.922Z,56.73
2019-03-12T18:43:01.486Z,49.47
2019-03-12T18:45:35.372Z,48.40
2019-03-12T18:48:04.528Z,49.03
2019-03-12T18:50:33.472Z,56.50
2019-03-12T18:53:02.259Z,59.23
2019-03-12T18:55:33.782Z,63.07
2019-03-12T18:58:03.090Z,62.77
2019-03-12T19:00:32.883Z,54.70
2019-03-12T19:03:01.439Z,67.67
2019-03-12T19:05:30.078Z,76.43
2019-03-12T19:07:58.743Z,79.47
2019-03-12T19:10:27.371Z,66.33
2019-03-12T19:12:56.062Z,76.63
2019-03-12T19:15:25.073Z,84.83
2019-03-12T19:17:53.776Z,68.13
2019-03-12T19:20:22.436Z,62.23
2019-03-12T19:22:51.062Z,73.63
2019-03-12T19:25:24.083Z,67.17
2019-03-12T19:27:59.940Z,64.93
2019-03-12T19:30:23.139Z,74.43
2019-03-12T19:32:59.139Z,60.93
2019-03-12T19:35:29.659Z,63.87
2019-03-12T19:37:59.864Z,57.67
2019-03-12T19:40:40.288Z,64.33
2019-03-12T19:43:08.905Z,63.17
2019-03-12T19:45:37.638Z,62.07
2019-03-12T19:48:06.959Z,60.03
2019-03-12T19:50:39.298Z,49.87
2019-03-12T19:53:07.920Z,44.30
2019-03-12T19:55:51.150Z,49.77
2019-03-12T19:58:19.768Z,125.90
2019-03-12T20:00:49.255Z,81.33
2019-03-12T20:03:18.130Z,72.90
2019-03-12T20:05:46.849Z,66.07
2019-03-12T20:08:15.539Z,73.47
2019-03-12T20:10:49.794Z,60.40
2019-03-12T20:13:46.266Z,70.63
2019-03-12T20:16:51.042Z,63.93
2019-03-12T20:19:55.849Z,134.97
2019-03-12T20:22:46.943Z,156.87
2019-03-12T20:25:36.308Z,145.90
2019-03-12T20:28:33.584Z,117.80
2019-03-12T20:31:26.244Z,106.13
2019-03-12T20:34:26.457Z,109.60
2019-03-12T20:37:17.641Z,117.50
2019-03-12T20:40:22.530Z,97.00
2019-03-12T20:43:12.063Z,88.13
2019-03-12T20:46:17.039Z,78.07
2019-03-12T20:49:15.826Z,86.80
2019-03-12T20:52:07.214Z,70.70
2019-03-12T20:55:12.087Z,73.20
2019-03-12T20:57:49.122Z,81.03
2019-03-12T21:00:49.557Z,71.33
2019-03-12T21:03:46.600Z,64.77
2019-03-12T21:06:33.181Z,59.80
2019-03-12T21:09:27.613Z,70.53
2019-03-12T21:12:24.686Z,79.23
2019-03-12T21:15:14.046Z,83.03
2019-03-12T21:17:57.705Z,84.10
2019-03-12T21:21:02.579Z,89.90
2019-03-12T21:23:39.998Z,84.63
2019-03-12T21:26:17.144Z,82.27
2019-03-12T21:28:48.992Z,88.30
2019-03-12T21:31:17.626Z,93.70
2019-03-12T21:33:46.335Z,85.63
2019-03-12T21:36:15.051Z,72.67
2019-03-12T21:38:43.733Z,83.87
2019-03-12T21:41:12.354Z,86.30
2019-03-12T21:43:42.548Z,81.43
2019-03-12T21:46:11.520Z,70.63
2019-03-12T21:48:40.189Z,83.50
2019-03-12T21:51:08.734Z,68.07
2019-03-12T21:53:37.272Z,81.63
2019-03-12T21:56:05.896Z,66.97
2019-03-12T21:58:34.462Z,57.40
2019-03-12T22:01:03.157Z,60.97
2019-03-12T22:03:31.831Z,54.13
2019-03-12T22:06:00.577Z,58.33
2019-03-12T22:08:29.265Z,72.17
2019-03-12T22:10:57.897Z,71.10
2019-03-12T22:13:26.575Z,66.10
2019-03-12T22:15:55.189Z,66.67
2019-03-12T22:18:23.746Z,57.00
2019-03-12T22:20:52.296Z,57.73
2019-03-12T22:23:31.472Z,52.10
2019-03-12T22:26:00.082Z,49.10
2019-03-12T22:28:28.610Z,56.10
2019-03-12T22:30:57.219Z,44.53
2019-03-12T22:33:25.960Z,47.57
2019-03-12T22:35:54.545Z,39.27
2019-03-12T22:38:23.245Z,46.73
2019-03-12T22:40:51.778Z,52.90
2019-03-12T22:43:20.365Z,36.97
2019-03-12T22:45:48.979Z,46.13
2019-03-12T22:48:17.559Z,42.20
2019-03-12T22:50:46.173Z,50.13
2019-03-12T22:53:14.734Z,42.93
2019-03-12T22:55:43.342Z,56.40
2019-03-12T22:58:11.886Z,59.40
2019-03-12T23:00:53.381Z,63.03
2019-03-12T23:03:22.117Z,68.50
2019-03-12T23:05:50.703Z,65.77
2019-03-12T23:08:19.365Z,67.27
2019-03-12T23:10:48.219Z,75.40
2019-03-12T23:13:16.877Z,75.83
2019-03-12T23:15:45.558Z,64.63
2019-03-12T23:18:14.591Z,58.80
2019-03-12T23:20:44.891Z,58.13
2019-03-12T23:23:13.543Z,60.60
2019-03-12T23:25:42.238Z,66.20
2019-03-12T23:28:11.113Z,73.07
2019-03-12T23:30:43.985Z,86.37
2019-03-12T23:33:15.783Z,97.23
2019-03-12T23:35:44.428Z,84.97
2019-03-12T23:38:13.199Z,81.30
2019-03-12T23:40:41.768Z,74.20
2019-03-12T23:43:10.536Z,71.17
2019-03-12T23:45:39.133Z,62.20
2019-03-12T23:48:07.805Z,58.83
2019-03-12T23:50:36.449Z,52.13
2019-03-12T23:53:05.591Z,47.10
2019-03-12T23:55:34.380Z,40.40
2019-03-12T23:58:03.209Z,29.50
